createdAt,value
2022-09-23T00:01:27.815Z,54.06
2022-09-23T00:03:56.644Z,55.02
2022-09-23T00:06:25.875Z,58.11
2022-09-23T00:08:55.069Z,60.40
2022-09-23T00:11:28.642Z,62.30
2022-09-23T00:13:59.890Z,66.95
2022-09-23T00:16:34.789Z,59.83
2022-09-23T00:19:04.326Z,53.76
2022-09-23T00:21:32.802Z,55.48
2022-09-23T00:24:02.520Z,58.22
2022-09-23T00:26:30.686Z,60.90
2022-09-23T00:28:58.965Z,65.70
2022-09-23T00:31:27.981Z,60.89
2022-09-23T00:34:01.874Z,54.00
2022-09-23T00:36:32.403Z,55.53
2022-09-23T00:39:00.565Z,57.63
2022-09-23T00:41:28.739Z,60.11
2022-09-23T00:43:59.636Z,62.72
2022-09-23T00:46:38.827Z,66.73
2022-09-23T00:49:25.296Z,57.68
2022-09-23T00:51:59.118Z,54.05
2022-09-23T00:54:29.566Z,56.37
2022-09-23T00:57:00.495Z,59.80
2022-09-23T00:59:29.300Z,61.47
2022-09-23T01:01:59.797Z,66.58
2022-09-23T01:04:30.153Z,61.93
2022-09-23T01:07:10.297Z,54.24
2022-09-23T01:09:38.350Z,55.16
2022-09-23T01:12:12.569Z,58.93
2022-09-23T01:15:00.815Z,61.29
2022-09-23T01:17:49.259Z,66.18
2022-09-23T01:20:31.974Z,59.22
2022-09-23T01:23:18.579Z,53.77
2022-09-23T01:26:10.921Z,56.45
2022-09-23T01:28:55.785Z,59.40
2022-09-23T01:31:32.238Z,60.76
2022-09-23T01:34:22.648Z,66.00
2022-09-23T01:37:04.747Z,60.25
2022-09-23T01:39:45.635Z,53.82
2022-09-23T01:42:39.851Z,56.27
2022-09-23T01:45:14.939Z,58.46
2022-09-23T01:47:51.443Z,60.31
2022-09-23T01:50:43.956Z,66.20
2022-09-23T01:53:44.280Z,61.24
2022-09-23T01:56:21.246Z,53.59
2022-09-23T01:59:12.765Z,56.17
2022-09-23T02:01:51.074Z,59.09
2022-09-23T02:04:48.241Z,61.77
2022-09-23T02:07:25.953Z,66.26
2022-09-23T02:10:11.739Z,58.19
2022-09-23T02:12:45.740Z,53.89
2022-09-23T02:15:23.875Z,56.71
2022-09-23T02:17:56.425Z,59.50
2022-09-23T02:20:31.253Z,61.49
2022-09-23T02:23:19.908Z,65.84
2022-09-23T02:26:04.056Z,59.16
2022-09-23T02:28:52.712Z,54.03
2022-09-23T02:31:43.561Z,56.85
2022-09-23T02:34:39.030Z,59.45
2022-09-23T02:37:29.014Z,61.93
2022-09-23T02:40:18.733Z,66.43
2022-09-23T02:43:06.732Z,57.37
2022-09-23T02:45:35.743Z,54.17
2022-09-23T02:48:20.282Z,57.00
2022-09-23T02:50:48.895Z,59.61
2022-09-23T02:53:17.457Z,61.51
2022-09-23T02:55:46.031Z,65.68
2022-09-23T02:58:14.515Z,59.92
2022-09-23T03:00:51.464Z,53.67
2022-09-23T03:03:45.455Z,55.43
2022-09-23T03:06:52.044Z,58.52
2022-09-23T03:09:31.278Z,60.99
2022-09-23T03:12:22.594Z,64.16
2022-09-23T03:15:02.141Z,63.39
2022-09-23T03:18:02.769Z,54.65
2022-09-23T03:20:43.025Z,55.61
2022-09-23T03:23:15.502Z,58.63
2022-09-23T03:25:48.666Z,60.90
2022-09-23T03:28:20.449Z,62.50
2022-09-23T03:30:50.876Z,66.64
2022-09-23T03:33:26.784Z,59.15
2022-09-23T03:36:27.468Z,53.91
2022-09-23T03:39:04.249Z,56.39
2022-09-23T03:41:39.283Z,59.26
2022-09-23T03:44:09.327Z,60.83
2022-09-23T03:46:37.774Z,65.88
2022-09-23T03:49:24.477Z,60.80
2022-09-23T03:51:52.554Z,53.78
2022-09-23T03:54:20.831Z,55.70
2022-09-23T03:56:49.213Z,58.20
2022-09-23T03:59:17.280Z,60.54
2022-09-23T04:01:46.292Z,63.36
2022-09-23T04:04:14.556Z,64.42
2022-09-23T04:06:42.578Z,55.95
2022-09-23T04:09:10.897Z,55.09
2022-09-23T04:11:39.074Z,58.07
2022-09-23T04:14:07.475Z,60.45
2022-09-23T04:16:35.601Z,62.09
2022-09-23T04:19:05.013Z,66.27
2022-09-23T04:21:33.403Z,59.43
2022-09-23T04:24:02.213Z,53.67
2022-09-23T04:26:31.288Z,55.34
2022-09-23T04:29:00.241Z,58.48
2022-09-23T04:31:29.278Z,60.55
2022-09-23T04:33:58.369Z,62.28
2022-09-23T04:36:26.644Z,66.93
2022-09-23T04:38:54.921Z,60.20
2022-09-23T04:41:23.198Z,53.84
2022-09-23T04:43:51.268Z,55.72
2022-09-23T04:46:19.993Z,58.29
2022-09-23T04:48:48.230Z,60.34
2022-09-23T04:51:22.447Z,63.14
2022-09-23T04:53:52.462Z,65.25
2022-09-23T04:56:24.220Z,55.95
2022-09-23T04:58:53.624Z,55.15
2022-09-23T05:01:27.407Z,58.01
2022-09-23T05:04:05.469Z,60.65
2022-09-23T05:06:35.154Z,62.58
2022-09-23T05:09:06.331Z,66.16
2022-09-23T05:11:35.402Z,57.84
2022-09-23T05:14:03.837Z,53.82
2022-09-23T05:16:31.880Z,56.33
2022-09-23T05:19:00.176Z,58.89
2022-09-23T05:21:31.662Z,60.85
2022-09-23T05:24:01.005Z,65.56
2022-09-23T05:26:32.007Z,60.39
2022-09-23T05:29:00.601Z,53.79
2022-09-23T05:31:30.673Z,55.19
2022-09-23T05:34:01.846Z,58.20
2022-09-23T05:36:36.885Z,60.82
2022-09-23T05:39:07.792Z,65.45
2022-09-23T05:41:36.938Z,60.45
2022-09-23T05:44:05.298Z,53.81
2022-09-23T05:46:33.952Z,55.56
2022-09-23T05:49:03.710Z,58.87
2022-09-23T05:51:34.832Z,61.15
2022-09-23T05:54:04.491Z,65.86
2022-09-23T05:56:35.071Z,60.40
2022-09-23T05:59:04.681Z,53.62
2022-09-23T06:01:35.557Z,55.42
2022-09-23T06:04:06.231Z,58.30
2022-09-23T06:06:38.131Z,60.17
2022-09-23T06:09:10.208Z,62.18
2022-09-23T06:11:38.456Z,67.18
2022-09-23T06:14:06.612Z,60.71
2022-09-23T06:16:35.810Z,54.12
2022-09-23T06:19:07.351Z,55.42
2022-09-23T06:21:38.824Z,58.26
2022-09-23T06:24:08.362Z,60.54
2022-09-23T06:26:38.039Z,61.61
2022-09-23T06:29:12.005Z,66.74
2022-09-23T06:31:42.272Z,61.31
2022-09-23T06:34:13.517Z,54.02
2022-09-23T06:36:45.887Z,55.28
2022-09-23T06:39:15.508Z,57.85
2022-09-23T06:41:45.506Z,60.47
2022-09-23T06:44:15.105Z,65.20
2022-09-23T06:46:44.344Z,59.93
2022-09-23T06:49:13.708Z,53.88
2022-09-23T06:51:42.101Z,55.84
2022-09-23T06:54:11.481Z,58.57
2022-09-23T06:56:40.253Z,60.65
2022-09-23T06:59:13.159Z,65.02
2022-09-23T07:01:42.048Z,60.43
2022-09-23T07:04:11.060Z,53.31
2022-09-23T07:06:39.540Z,54.77
2022-09-23T07:09:09.014Z,57.89
2022-09-23T07:11:37.922Z,60.08
2022-09-23T07:14:06.519Z,61.53
2022-09-23T07:16:34.691Z,65.80
2022-09-23T07:19:02.837Z,60.31
2022-09-23T07:21:31.243Z,53.75
2022-09-23T07:23:59.417Z,54.83
2022-09-23T07:26:27.595Z,57.42
2022-09-23T07:28:56.916Z,59.89
2022-09-23T07:31:37.879Z,61.48
2022-09-23T07:34:12.781Z,66.35
2022-09-23T07:36:41.358Z,59.66
2022-09-23T07:39:12.425Z,53.98
2022-09-23T07:41:44.829Z,55.37
2022-09-23T07:44:13.173Z,57.72
2022-09-23T07:46:41.841Z,60.18
2022-09-23T07:49:10.893Z,61.50
2022-09-23T07:51:41.381Z,66.22
2022-09-23T07:54:13.021Z,59.79
2022-09-23T07:56:42.483Z,52.94
2022-09-23T07:59:17.368Z,54.26
2022-09-23T08:01:50.949Z,56.19
2022-09-23T08:04:29.887Z,58.08
2022-09-23T08:07:02.271Z,59.83
2022-09-23T08:09:41.719Z,60.91
2022-09-23T08:12:20.631Z,66.03
2022-09-23T08:14:48.704Z,59.85
2022-09-23T08:17:17.184Z,51.97
2022-09-23T08:19:45.254Z,53.06
2022-09-23T08:22:13.692Z,55.23
2022-09-23T08:24:41.808Z,57.27
2022-09-23T08:27:11.004Z,57.69
2022-09-23T08:29:39.179Z,58.77
2022-09-23T08:32:07.253Z,61.89
2022-09-23T08:34:36.149Z,63.44
2022-09-23T08:37:04.418Z,54.29
2022-09-23T08:39:32.591Z,52.58
2022-09-23T08:42:14.896Z,54.57
2022-09-23T08:44:47.369Z,56.97
2022-09-23T08:47:43.908Z,57.87
2022-09-23T08:50:21.886Z,57.70
2022-09-23T08:52:58.996Z,57.93
2022-09-23T08:55:34.849Z,58.97
2022-09-23T08:58:26.547Z,58.39
2022-09-23T09:01:09.635Z,59.71
2022-09-23T09:03:46.679Z,61.08
2022-09-23T09:06:51.843Z,64.04
2022-09-23T09:09:30.643Z,54.67
2022-09-23T09:12:11.412Z,52.03
2022-09-23T09:14:59.457Z,52.46
2022-09-23T09:17:35.122Z,53.82
2022-09-23T09:20:19.268Z,53.37
2022-09-23T09:22:50.187Z,54.49
2022-09-23T09:25:23.994Z,56.23
2022-09-23T09:27:52.903Z,56.86
2022-09-23T09:30:21.261Z,56.76
2022-09-23T09:32:58.858Z,57.36
2022-09-23T09:35:42.492Z,57.00
2022-09-23T09:38:10.563Z,57.01
2022-09-23T09:40:46.299Z,58.00
2022-09-23T09:43:23.739Z,58.28
2022-09-23T09:46:16.278Z,58.65
2022-09-23T09:48:54.688Z,58.87
2022-09-23T09:51:25.397Z,59.83
2022-09-23T09:53:55.231Z,62.52
2022-09-23T09:56:35.040Z,63.90
2022-09-23T09:59:17.509Z,52.69
2022-09-23T10:01:46.555Z,50.25
2022-09-23T10:04:38.969Z,51.70
2022-09-23T10:07:14.903Z,53.57
2022-09-23T10:09:50.960Z,56.11
2022-09-23T10:12:24.762Z,57.21
2022-09-23T10:14:57.446Z,59.31
2022-09-23T10:17:33.912Z,59.81
2022-09-23T10:20:15.436Z,60.35
2022-09-23T10:22:44.695Z,60.88
2022-09-23T10:25:27.715Z,60.02
2022-09-23T10:27:55.796Z,64.18
2022-09-23T10:30:27.125Z,57.13
2022-09-23T10:32:57.296Z,50.16
2022-09-23T10:35:26.864Z,50.33
2022-09-23T10:37:57.094Z,52.23
2022-09-23T10:40:46.551Z,53.58
2022-09-23T10:43:39.108Z,54.67
2022-09-23T10:49:24.203Z,57.17
2022-09-23T10:51:58.216Z,57.38
2022-09-23T10:54:41.854Z,58.21
2022-09-23T10:57:41.082Z,57.06
2022-09-23T11:00:18.854Z,56.73
2022-09-23T11:03:03.105Z,57.14
2022-09-23T11:05:38.655Z,59.21
2022-09-23T11:08:28.949Z,57.39
2022-09-23T11:11:03.265Z,57.63
2022-09-23T11:13:54.765Z,58.43
2022-09-23T11:16:58.959Z,59.13
2022-09-23T11:20:04.458Z,59.68
2022-09-23T11:22:50.963Z,59.91
2022-09-23T11:25:32.346Z,60.06
2022-09-23T11:28:19.669Z,61.13
2022-09-23T11:31:07.916Z,61.41
2022-09-23T11:33:53.189Z,66.95
2022-09-23T11:36:24.435Z,57.84
2022-09-23T11:38:56.109Z,50.26
2022-09-23T11:41:40.038Z,50.64
2022-09-23T11:44:20.370Z,52.00
2022-09-23T11:47:30.863Z,53.42
2022-09-23T11:50:12.975Z,54.66
2022-09-23T11:52:47.282Z,55.67
2022-09-23T11:55:23.475Z,56.66
2022-09-23T11:58:00.476Z,57.70
2022-09-23T12:00:34.554Z,57.84
2022-09-23T12:03:18.034Z,58.80
2022-09-23T12:05:51.630Z,59.21
2022-09-23T12:08:32.515Z,58.85
2022-09-23T12:11:38.093Z,59.61
2022-09-23T12:14:39.343Z,59.45
2022-09-23T12:17:15.606Z,59.61
2022-09-23T12:19:50.334Z,60.83
2022-09-23T12:22:30.591Z,60.15
2022-09-23T12:25:28.134Z,59.67
2022-09-23T12:28:03.292Z,59.21
2022-09-23T12:30:35.922Z,59.54
2022-09-23T12:33:25.088Z,58.93
2022-09-23T12:36:10.309Z,58.98
2022-09-23T12:39:02.036Z,60.52
2022-09-23T12:41:39.529Z,58.41
2022-09-23T12:44:23.473Z,59.70
2022-09-23T12:47:14.383Z,59.26
2022-09-23T12:49:43.884Z,59.10
2022-09-23T12:52:12.058Z,59.33
2022-09-23T12:54:41.338Z,57.45
2022-09-23T12:57:21.718Z,58.36
2022-09-23T13:00:12.998Z,56.80
2022-09-23T13:03:12.444Z,56.08
2022-09-23T13:06:10.516Z,56.10
2022-09-23T13:08:42.069Z,55.86
2022-09-23T13:11:30.962Z,56.00
2022-09-23T13:14:05.758Z,56.36
2022-09-23T13:16:43.953Z,55.43
2022-09-23T13:19:34.189Z,55.43
2022-09-23T13:22:09.593Z,55.27
2022-09-23T13:24:41.157Z,55.48
2022-09-23T13:27:23.871Z,53.59
2022-09-23T13:30:22.353Z,53.08
2022-09-23T13:33:13.037Z,54.26
2022-09-23T13:35:46.351Z,53.51
2022-09-23T13:38:33.161Z,53.70
2022-09-23T13:41:07.684Z,54.96
2022-09-23T13:44:03.815Z,54.56
2022-09-23T13:46:43.459Z,54.29
2022-09-23T13:49:48.391Z,54.76
2022-09-23T13:52:35.201Z,55.30
2022-09-23T13:55:03.478Z,54.18
2022-09-23T13:57:34.214Z,54.44
2022-09-23T14:00:15.499Z,53.96
2022-09-23T14:02:44.707Z,54.34
2022-09-23T14:05:25.187Z,54.29
2022-09-23T14:07:55.993Z,54.55
2022-09-23T14:10:27.959Z,53.73
2022-09-23T14:12:57.090Z,54.68
2022-09-23T14:15:25.804Z,53.73
2022-09-23T14:18:02.616Z,53.03
2022-09-23T14:20:30.789Z,52.95
2022-09-23T14:23:12.467Z,51.66
2022-09-23T14:25:43.213Z,51.85
2022-09-23T14:28:18.737Z,50.98
2022-09-23T14:30:48.365Z,51.62
2022-09-23T14:33:21.666Z,50.10
2022-09-23T14:35:54.035Z,50.26
2022-09-23T14:38:47.706Z,49.93
2022-09-23T14:41:22.125Z,48.94
2022-09-23T14:43:52.864Z,50.89
2022-09-23T14:46:22.833Z,51.69
2022-09-23T14:49:06.169Z,52.56
2022-09-23T14:51:47.102Z,50.93
2022-09-23T14:54:36.770Z,51.08
2022-09-23T14:57:22.964Z,50.24
2022-09-23T15:00:09.355Z,47.92
2022-09-23T15:02:44.497Z,47.15
2022-09-23T15:05:22.510Z,46.90
2022-09-23T15:07:58.230Z,45.87
2022-09-23T15:10:33.590Z,45.67
2022-09-23T15:13:09.448Z,45.33
2022-09-23T15:15:37.962Z,45.17
2022-09-23T15:18:16.137Z,45.44
2022-09-23T15:21:15.951Z,45.17
2022-09-23T15:23:45.767Z,46.13
2022-09-23T15:26:18.545Z,46.83
2022-09-23T15:28:48.254Z,47.67
2022-09-23T15:31:21.219Z,47.83
2022-09-23T15:33:50.763Z,48.20
2022-09-23T15:36:21.584Z,48.86
2022-09-23T15:38:50.217Z,49.08
2022-09-23T15:41:19.144Z,49.83
2022-09-23T15:43:47.438Z,49.90
2022-09-23T15:46:22.643Z,50.01
2022-09-23T15:49:23.309Z,50.54
2022-09-23T15:51:52.281Z,50.74
2022-09-23T15:54:20.479Z,51.42
2022-09-23T15:56:48.857Z,52.05
2022-09-23T15:59:16.931Z,52.46
2022-09-23T16:01:46.211Z,53.00
2022-09-23T16:04:16.018Z,53.66
2022-09-23T16:06:48.621Z,55.13
2022-09-23T16:09:16.792Z,55.97
2022-09-23T16:11:47.424Z,56.41
2022-09-23T16:14:17.544Z,56.01
2022-09-23T16:16:48.048Z,57.64
2022-09-23T16:19:17.885Z,57.97
2022-09-23T16:21:46.061Z,58.31
2022-09-23T16:24:18.646Z,59.10
2022-09-23T16:26:48.960Z,59.63
2022-09-23T16:29:17.034Z,59.65
2022-09-23T16:31:45.162Z,60.42
2022-09-23T16:34:13.278Z,60.40
2022-09-23T16:36:43.603Z,60.97
2022-09-23T16:39:14.949Z,61.29
2022-09-23T16:41:44.147Z,61.95
2022-09-23T16:44:13.961Z,61.99
2022-09-23T16:46:43.146Z,62.17
2022-09-23T16:49:14.387Z,65.99
2022-09-23T16:51:42.987Z,62.09
2022-09-23T16:54:13.409Z,51.98
2022-09-23T16:56:45.375Z,51.52
2022-09-23T16:59:16.318Z,53.60
2022-09-23T17:02:03.289Z,55.37
2022-09-23T17:04:32.287Z,56.50
2022-09-23T17:07:00.499Z,57.05
2022-09-23T17:09:30.399Z,57.73
2022-09-23T17:12:12.208Z,58.37
2022-09-23T17:14:40.278Z,59.02
2022-09-23T17:17:08.355Z,59.59
2022-09-23T17:19:38.272Z,60.47
2022-09-23T17:22:06.435Z,61.33
2022-09-23T17:24:34.506Z,61.91
2022-09-23T17:27:03.296Z,62.22
2022-09-23T17:29:31.732Z,66.73
2022-09-23T17:31:59.868Z,60.94
2022-09-23T17:34:29.148Z,52.49
2022-09-23T17:36:57.321Z,52.79
2022-09-23T17:39:25.499Z,55.02
2022-09-23T17:41:56.334Z,56.63
2022-09-23T17:44:24.710Z,57.81
2022-09-23T17:46:52.993Z,58.71
2022-09-23T17:49:24.335Z,59.63
2022-09-23T17:51:52.406Z,60.33
2022-09-23T17:54:20.790Z,60.89
2022-09-23T17:56:49.677Z,61.35
2022-09-23T17:59:17.954Z,61.67
2022-09-23T18:01:46.149Z,66.14
2022-09-23T18:04:14.300Z,61.18
2022-09-23T18:06:42.371Z,52.57
2022-09-23T18:09:13.491Z,52.93
2022-09-23T18:11:45.214Z,54.66
2022-09-23T18:14:15.594Z,56.17
2022-09-23T18:16:45.674Z,57.11
2022-09-23T18:19:17.038Z,58.72
2022-09-23T18:21:50.086Z,59.43
2022-09-23T18:24:35.299Z,60.02
2022-09-23T18:27:06.677Z,60.58
2022-09-23T18:29:35.508Z,61.45
2022-09-23T18:32:05.240Z,61.96
2022-09-23T18:34:35.448Z,66.17
2022-09-23T18:37:08.628Z,60.38
2022-09-23T18:39:44.644Z,51.94
2022-09-23T18:42:13.840Z,52.92
2022-09-23T18:44:42.014Z,54.96
2022-09-23T18:47:30.054Z,56.58
2022-09-23T18:50:16.865Z,58.01
2022-09-23T18:52:45.039Z,59.01
2022-09-23T18:55:13.313Z,60.05
2022-09-23T18:57:41.487Z,61.00
2022-09-23T19:00:10.539Z,61.58
2022-09-23T19:02:38.654Z,61.78
2022-09-23T19:05:07.858Z,66.30
2022-09-23T19:07:35.923Z,60.85
2022-09-23T19:10:04.717Z,51.99
2022-09-23T19:12:32.988Z,52.66
2022-09-23T19:15:01.062Z,54.70
2022-09-23T19:17:29.539Z,56.45
2022-09-23T19:19:58.841Z,57.57
2022-09-23T19:22:26.911Z,58.54
2022-09-23T19:24:54.894Z,59.36
2022-09-23T19:27:23.771Z,59.99
2022-09-23T19:29:52.047Z,60.67
2022-09-23T19:32:21.335Z,61.16
2022-09-23T19:34:49.418Z,61.81
2022-09-23T19:37:17.490Z,66.75
2022-09-23T19:39:47.814Z,61.12
2022-09-23T19:42:16.088Z,51.89
2022-09-23T19:44:44.161Z,52.32
2022-09-23T19:47:15.893Z,54.55
2022-09-23T19:49:44.400Z,56.28
2022-09-23T19:52:12.471Z,57.88
2022-09-23T19:54:40.498Z,59.12
2022-09-23T19:57:09.342Z,59.90
2022-09-23T19:59:38.938Z,60.61
2022-09-23T20:02:08.992Z,61.49
2022-09-23T20:04:37.845Z,62.00
2022-09-23T20:07:06.024Z,66.26
2022-09-23T20:09:34.090Z,60.21
2022-09-23T20:12:02.673Z,51.85
2022-09-23T20:14:31.666Z,52.53
2022-09-23T20:17:00.659Z,54.76
2022-09-23T20:19:29.039Z,56.23
2022-09-23T20:22:17.390Z,57.70
2022-09-23T20:24:45.456Z,58.85
2022-09-23T20:27:13.527Z,59.55
2022-09-23T20:29:42.934Z,60.54
2022-09-23T20:32:11.614Z,61.44
2022-09-23T20:34:44.396Z,66.45
2022-09-23T20:37:17.793Z,61.28
2022-09-23T20:39:49.244Z,52.34
2022-09-23T20:42:21.208Z,53.05
2022-09-23T20:44:49.277Z,55.69
2022-09-23T20:47:18.869Z,57.24
2022-09-23T20:49:49.106Z,58.46
2022-09-23T20:52:18.304Z,59.19
2022-09-23T20:54:46.573Z,60.13
2022-09-23T20:57:15.472Z,60.89
2022-09-23T20:59:44.463Z,61.44
2022-09-23T21:02:12.817Z,62.14
2022-09-23T21:04:41.018Z,66.85
2022-09-23T21:07:09.497Z,60.54
2022-09-23T21:09:37.674Z,52.14
2022-09-23T21:12:06.459Z,52.88
2022-09-23T21:14:34.584Z,54.97
2022-09-23T21:17:02.583Z,56.89
2022-09-23T21:19:31.492Z,58.35
2022-09-23T21:22:00.161Z,59.57
2022-09-23T21:27:17.491Z,61.15
2022-09-23T21:29:45.589Z,62.04
2022-09-23T21:32:13.660Z,66.78
2022-09-23T21:34:41.731Z,60.94
2022-09-23T21:37:09.802Z,52.18
2022-09-23T21:39:37.875Z,52.85
2022-09-23T21:42:06.457Z,55.00
2022-09-23T21:44:35.143Z,56.94
2022-09-23T21:47:03.244Z,58.73
2022-09-23T21:49:32.514Z,59.65
2022-09-23T21:52:00.995Z,60.53
2022-09-23T21:54:29.785Z,61.04
2022-09-23T21:56:57.957Z,66.27
2022-09-23T21:59:26.029Z,61.65
2022-09-23T22:01:54.587Z,52.78
2022-09-23T22:04:22.867Z,52.94
2022-09-23T22:06:51.122Z,55.00
2022-09-23T22:09:21.387Z,57.02
2022-09-23T22:12:08.197Z,59.10
2022-09-23T22:14:37.063Z,59.92
2022-09-23T22:17:07.209Z,61.16
2022-09-23T22:19:39.370Z,66.82
2022-09-23T22:22:13.539Z,61.68
2022-09-23T22:24:46.901Z,52.62
2022-09-23T22:27:18.334Z,52.93
2022-09-23T22:30:05.451Z,55.88
2022-09-23T22:32:43.047Z,57.83
2022-09-23T22:35:18.013Z,59.17
2022-09-23T22:37:48.199Z,60.22
2022-09-23T22:40:16.420Z,61.29
2022-09-23T22:42:44.755Z,66.36
2022-09-23T22:45:13.809Z,61.28
2022-09-23T22:47:45.683Z,52.61
2022-09-23T22:50:14.888Z,53.22
2022-09-23T22:52:43.721Z,55.63
2022-09-23T22:55:12.488Z,57.37
2022-09-23T22:57:40.554Z,58.90
2022-09-23T23:00:11.787Z,59.94
2022-09-23T23:02:40.587Z,60.85
2022-09-23T23:05:09.276Z,61.44
2022-09-23T23:07:37.650Z,66.38
2022-09-23T23:10:07.399Z,61.44
2022-09-23T23:12:35.534Z,52.43
2022-09-23T23:15:04.399Z,52.95
2022-09-23T23:17:33.420Z,55.38
2022-09-23T23:20:02.173Z,57.76
2022-09-23T23:22:30.378Z,59.40
2022-09-23T23:24:58.452Z,60.34
2022-09-23T23:27:26.523Z,60.92
2022-09-23T23:29:54.592Z,66.82
2022-09-23T23:32:22.633Z,61.86
2022-09-23T23:34:50.638Z,52.91
2022-09-23T23:37:20.968Z,53.14
2022-09-23T23:39:49.336Z,56.03
2022-09-23T23:42:18.022Z,58.34
2022-09-23T23:44:46.582Z,59.82
2022-09-23T23:47:15.597Z,60.92
2022-09-23T23:49:43.669Z,62.02
2022-09-23T23:52:12.662Z,66.92
2022-09-23T23:54:40.667Z,60.87
2022-09-23T23:57:09.014Z,52.83
2022-09-23T23:59:37.267Z,53.68
